Time;durP1;ratioP1;P1;durP2;ratioP2;P2;SDS_P1;SDS_P2;PMS_P1;PMS_P2;Temp;Humidity;BMP_temperature;BMP_pressure;BME280_temperature;BME280_humidity;BME280_pressure;Samples;Min_cycle;Max_cycle;Signal;HPM_P1;HPM_P2
2022/09/20 00:01:45;;;;;;;4.63;2.50;;;;;;;20.06;53.85;102357.06;5095493;27;20501;-77
2022/09/20 00:04:11;;;;;;;5.00;2.15;;;;;;;20.06;54.04;102349.22;5108001;28;20397;-78
2022/09/20 00:06:36;;;;;;;3.70;1.92;;;;;;;20.06;54.06;102362.31;5083709;27;20081;-78
2022/09/20 00:09:02;;;;;;;3.58;2.17;;;;;;;20.05;54.11;102353.56;5085614;28;20043;-80
2022/09/20 00:11:30;;;;;;;3.88;2.20;;;;;;;20.05;54.20;102352.69;5101861;28;20537;-78
2022/09/20 00:13:57;;;;;;;4.47;2.13;;;;;;;20.05;54.09;102356.19;5092194;28;20105;-80
2022/09/20 00:18:52;;;;;;;4.25;2.10;;;;;;;20.05;54.04;102348.34;5101777;28;20058;-76
2022/09/20 00:21:21;;;;;;;3.55;1.88;;;;;;;20.05;53.95;102345.72;5102410;28;20062;-76
2022/09/20 00:23:46;;;;;;;4.15;1.90;;;;;;;20.04;54.09;102345.75;5096909;28;20595;-77
2022/09/20 00:26:12;;;;;;;3.80;1.80;;;;;;;20.04;54.11;102338.75;5083192;28;20048;-77
2022/09/20 00:28:38;;;;;;;4.03;1.90;;;;;;;20.05;54.06;102344.84;5100231;28;20126;-78
2022/09/20 00:31:04;;;;;;;2.83;1.90;;;;;;;20.05;53.97;102342.25;5102167;28;20043;-79
2022/09/20 00:36:14;;;;;;;3.90;1.88;;;;;;;20.04;54.42;102337.91;5093856;27;20069;-79
2022/09/20 00:38:39;;;;;;;4.28;1.80;;;;;;;20.04;53.98;102336.16;5103546;27;20035;-78
2022/09/20 00:41:05;;;;;;;3.78;1.80;;;;;;;20.04;54.14;102337.91;5132749;27;20111;-78
2022/09/20 00:43:45;;;;;;;3.47;1.80;;;;;;;20.04;53.93;102340.50;5087381;28;20050;-78
2022/09/20 00:46:21;;;;;;;3.92;1.80;;;;;;;20.03;53.92;102338.75;5113406;27;20138;-77
2022/09/20 00:48:48;;;;;;;3.50;1.70;;;;;;;20.03;54.06;102339.63;5103416;27;20047;-76
2022/09/20 00:51:20;;;;;;;3.90;1.88;;;;;;;20.04;54.29;102335.28;5105718;27;20108;-76
2022/09/20 00:53:49;;;;;;;2.35;1.45;;;;;;;20.03;53.72;102334.38;5111639;27;20043;-76
2022/09/20 00:56:22;;;;;;;3.42;1.75;;;;;;;20.02;53.99;102342.25;5125512;27;20066;-76
2022/09/20 00:59:05;;;;;;;4.32;1.88;;;;;;;20.03;54.08;102346.59;5109925;28;20400;-78
2022/09/20 01:01:31;;;;;;;5.00;1.80;;;;;;;20.02;53.95;102332.66;5097674;28;20047;-77
2022/09/20 01:03:57;;;;;;;4.32;1.70;;;;;;;20.03;53.92;102341.38;5101259;28;20435;-78
2022/09/20 01:06:23;;;;;;;3.55;1.83;;;;;;;20.01;54.19;102344.00;5085290;28;20036;-76
2022/09/20 01:08:53;;;;;;;2.08;1.45;;;;;;;20.02;53.95;102337.03;5082752;28;20048;-76
2022/09/20 01:11:18;;;;;;;2.97;1.70;;;;;;;20.02;54.03;102350.09;5111802;28;20043;-76
2022/09/20 01:13:44;;;;;;;5.07;1.73;;;;;;;20.01;53.89;102344.00;5098859;28;20460;-77
2022/09/20 01:16:11;;;;;;;2.65;1.52;;;;;;;20.02;54.05;102347.47;5044066;28;20131;-77
2022/09/20 01:18:38;;;;;;;3.00;1.83;;;;;;;20.02;54.06;102350.09;5064166;28;1175097;-77
2022/09/20 01:21:06;;;;;;;3.35;1.88;;;;;;;20.02;53.84;102342.25;5082986;28;20054;-78
2022/09/20 01:23:43;;;;;;;3.08;1.50;;;;;;;20.01;54.00;102344.00;5100515;28;20048;-79
2022/09/20 01:29:07;;;;;;;4.05;1.55;;;;;;;20.01;53.98;102338.78;5129351;27;20073;-77
2022/09/20 01:31:35;;;;;;;3.03;1.50;;;;;;;20.01;54.02;102344.00;5103080;28;20055;-77
2022/09/20 01:34:12;;;;;;;3.78;1.35;;;;;;;20.01;54.14;102343.09;5107894;28;20065;-78
2022/09/20 01:37:03;;;;;;;2.63;1.38;;;;;;;20.01;53.70;102333.53;5100666;28;20081;-79
2022/09/20 01:40:18;;;;;;;3.28;1.58;;;;;;;20.00;54.03;102339.63;5129442;27;20039;-78
2022/09/20 01:43:07;;;;;;;3.88;1.40;;;;;;;20.00;54.01;102334.38;5104444;28;20039;-77
2022/09/20 01:45:32;;;;;;;2.58;1.58;;;;;;;20.01;54.01;102337.88;5097927;27;20043;-77
2022/09/20 01:48:12;;;;;;;3.50;1.60;;;;;;;20.01;53.92;102340.47;5086585;28;20044;-77
2022/09/20 01:51:19;;;;;;;1.88;1.13;;;;;;;20.00;54.08;102343.97;5090168;28;20038;-78
2022/09/20 01:54:04;;;;;;;2.70;1.50;;;;;;;19.99;54.05;102335.28;5094897;28;20047;-77
2022/09/20 01:57:07;;;;;;;2.35;1.30;;;;;;;20.00;54.08;102338.75;5096498;28;20044;-77
2022/09/20 01:59:42;;;;;;;1.92;1.13;;;;;;;20.00;53.47;102336.13;5095734;28;20498;-77
2022/09/20 02:02:26;;;;;;;2.13;1.20;;;;;;;19.99;54.04;102334.38;5096858;28;20135;-77
2022/09/20 02:05:09;;;;;;;2.28;1.25;;;;;;;19.99;53.98;102331.75;5079322;28;20059;-77
2022/09/20 02:08:06;;;;;;;1.55;1.17;;;;;;;19.99;54.03;102329.16;5096092;28;20575;-77
2022/09/20 02:10:56;;;;;;;1.55;1.13;;;;;;;19.98;53.91;102328.28;5095867;28;20126;-77
2022/09/20 02:16:08;;;;;;;2.85;1.35;;;;;;;19.99;53.82;102331.75;5108390;28;20052;-77
2022/09/20 02:18:37;;;;;;;1.73;1.02;;;;;;;19.98;53.99;102327.41;5097396;28;20044;-77
2022/09/20 02:24:09;;;;;;;1.85;1.17;;;;;;;19.98;54.03;102330.03;5102581;28;20059;-77
2022/09/20 02:27:09;;;;;;;2.20;1.38;;;;;;;19.98;53.94;102328.28;5098096;28;20390;-77
2022/09/20 02:30:04;;;;;;;2.63;1.38;;;;;;;19.98;53.71;102336.13;5090039;28;20043;-77
2022/09/20 02:32:42;;;;;;;1.33;0.90;;;;;;;19.98;54.06;102330.03;5096440;28;20138;-77
2022/09/20 02:38:11;;;;;;;3.40;1.63;;;;;;;19.98;53.89;102335.25;5100059;28;20043;-77
2022/09/20 02:40:42;;;;;;;2.35;1.30;;;;;;;19.97;53.81;102337.00;5099581;28;20131;-78
2022/09/20 02:43:23;;;;;;;2.00;1.02;;;;;;;19.98;53.91;102340.47;5096695;28;20036;-80
2022/09/20 02:46:05;;;;;;;2.35;1.10;;;;;;;19.96;53.96;102343.09;5094560;28;20435;-77
2022/09/20 02:48:48;;;;;;;2.35;1.20;;;;;;;19.97;53.91;102339.63;5105468;28;20035;-78
2022/09/20 02:54:14;;;;;;;2.40;1.27;;;;;;;19.95;53.91;102341.34;5107354;28;20076;-77
2022/09/20 02:56:50;;;;;;;2.85;1.20;;;;;;;19.95;53.92;102338.75;5096343;28;20032;-79
2022/09/20 02:59:24;;;;;;;2.20;1.20;;;;;;;19.96;53.93;102342.22;5109943;28;20051;-78
2022/09/20 03:02:03;;;;;;;2.63;1.25;;;;;;;19.94;54.05;102340.44;5097863;28;20036;-77
2022/09/20 03:04:46;;;;;;;2.30;1.13;;;;;;;19.95;54.01;102338.75;5095687;28;20052;-79
2022/09/20 03:07:24;;;;;;;2.17;1.10;;;;;;;19.96;53.74;102340.47;5109091;28;20508;-78
2022/09/20 03:10:08;;;;;;;2.03;1.20;;;;;;;19.95;53.88;102336.13;5107550;28;20124;-77
2022/09/20 03:12:53;;;;;;;3.92;1.13;;;;;;;19.96;53.81;102342.22;5095223;28;20051;-78
2022/09/20 03:18:05;;;;;;;3.13;1.30;;;;;;;19.96;53.73;102337.00;5107387;28;21243;-77
2022/09/20 03:21:09;;;;;;;2.47;1.20;;;;;;;19.96;53.82;102344.81;5096020;28;20055;-78
2022/09/20 03:24:02;;;;;;;3.58;1.05;;;;;;;19.94;53.98;102340.44;5085677;28;20494;-79
2022/09/20 03:26:53;;;;;;;2.45;1.20;;;;;;;19.94;53.79;102339.59;5106539;27;20051;-80
2022/09/20 03:32:21;;;;;;;1.95;0.90;;;;;;;19.94;53.91;102336.97;5132006;27;20091;-77
2022/09/20 03:34:55;;;;;;;1.55;0.98;;;;;;;19.94;53.82;102343.06;5104545;27;20078;-79
2022/09/20 03:40:21;;;;;;;1.83;1.08;;;;;;;19.94;54.06;102342.19;5123132;27;20681;-76
2022/09/20 03:42:50;;;;;;;1.98;0.82;;;;;;;19.93;53.99;102346.56;5104518;27;20055;-76
2022/09/20 03:48:15;;;;;;;2.00;1.20;;;;;;;19.94;54.04;102344.81;5131505;27;20051;-77
2022/09/20 03:50:52;;;;;;;2.38;1.15;;;;;;;19.93;53.99;102346.56;5104196;27;20397;-78
2022/09/20 03:56:05;;;;;;;3.25;1.17;;;;;;;19.93;53.97;102340.47;5131394;27;20050;-77
2022/09/20 03:58:55;;;;;;;2.40;1.15;;;;;;;19.92;53.96;102344.81;5131305;27;20039;-79
2022/09/20 04:04:00;;;;;;;1.98;0.95;;;;;;;19.91;53.90;102343.06;5110880;28;20047;-79
2022/09/20 04:06:48;;;;;;;1.35;1.02;;;;;;;19.92;53.93;102344.81;5112809;28;20051;-77
2022/09/20 04:12:25;;;;;;;2.00;1.08;;;;;;;19.91;53.85;102348.28;5113060;28;20761;-76
2022/09/20 04:15:23;;;;;;;2.22;1.15;;;;;;;19.91;54.02;102353.50;5110834;28;20071;-78
2022/09/20 04:18:02;;;;;;;3.55;1.40;;;;;;;19.91;53.87;102352.66;5089611;28;20079;-77
2022/09/20 04:20:37;;;;;;;1.30;0.80;;;;;;;19.91;53.97;102344.81;5109261;28;20048;-79
2022/09/20 04:25:50;;;;;;;2.00;1.23;;;;;;;19.90;53.75;102351.78;5111160;28;20054;-77
2022/09/20 04:28:24;;;;;;;1.48;0.85;;;;;;;19.90;53.79;102343.03;5101548;27;20031;-75
2022/09/20 04:30:55;;;;;;;1.95;0.93;;;;;;;19.90;53.65;102351.78;5110415;28;21241;-75
2022/09/20 04:33:23;;;;;;;2.33;0.98;;;;;;;19.90;53.84;102343.94;5093372;28;20058;-75
2022/09/20 04:38:56;;;;;;;1.48;0.90;;;;;;;19.89;53.89;102355.25;5101896;28;20059;-77
2022/09/20 04:41:27;;;;;;;2.45;0.95;;;;;;;19.89;53.83;102350.03;5093683;28;20125;-76
2022/09/20 04:44:10;;;;;;;2.40;0.85;;;;;;;19.89;53.75;102351.78;5096742;28;20529;-76
2022/09/20 04:46:54;;;;;;;;;;;;;;;19.89;53.75;102357.84;5108558;28;20058;-76
2022/09/20 04:52:05;;;;;;;1.55;0.90;;;;;;;19.89;53.59;102357.00;5115030;27;20082;-78
2022/09/20 04:54:59;;;;;;;2.35;1.00;;;;;;;19.87;53.55;102358.72;5107123;27;20075;-77
2022/09/20 05:00:12;;;;;;;9.35;3.08;;;;;;;19.88;53.78;102356.13;5131529;27;20046;-79
2022/09/20 05:02:59;;;;;;;19.08;4.65;;;;;;;19.87;53.73;102359.59;5103555;27;20107;-80
2022/09/20 05:08:02;;;;;;;16.67;4.65;;;;;;;19.89;53.86;102367.44;5130205;27;20051;-76
2022/09/20 05:10:43;;;;;;;12.02;4.53;;;;;;;19.87;53.67;102362.19;5104696;27;20058;-75
2022/09/20 05:13:22;;;;;;;10.73;4.68;;;;;;;19.88;53.71;102370.91;5106273;28;20047;-76
2022/09/20 05:16:03;;;;;;;10.23;3.60;;;;;;;19.88;53.84;102369.19;5102110;27;20035;-76
2022/09/20 05:18:49;;;;;;;10.18;3.70;;;;;;;19.88;53.79;102365.69;5112300;27;20067;-77
2022/09/20 05:24:12;;;;;;;11.57;3.30;;;;;;;19.87;53.67;102362.19;5129722;27;20054;-77
2022/09/20 05:26:56;;;;;;;11.15;3.60;;;;;;;19.87;53.84;102364.81;5102737;27;20035;-75
2022/09/20 05:32:13;;;;;;;7.65;3.17;;;;;;;19.88;53.71;102368.28;5129146;27;20123;-75
2022/09/20 05:34:47;;;;;;;8.97;3.50;;;;;;;19.87;53.75;102374.41;5060639;28;1133795;-76
2022/09/20 05:40:04;;;;;;;7.78;2.97;;;;;;;19.87;53.87;102369.16;5129196;27;20047;-75
2022/09/20 05:42:38;;;;;;;8.07;2.85;;;;;;;19.86;53.83;102375.25;5130022;27;20404;-76
2022/09/20 05:45:25;;;;;;;6.70;2.75;;;;;;;19.86;53.85;102372.63;5102681;27;20039;-76
2022/09/20 05:48:19;;;;;;;6.03;2.70;;;;;;;19.86;53.95;102380.47;5098699;28;20389;-78
2022/09/20 05:50:50;;;;;;;8.48;2.85;;;;;;;19.84;53.94;102377.88;5116262;27;20059;-80
2022/09/20 05:56:01;;;;;;;10.80;2.95;;;;;;;19.86;53.99;102377.84;5129343;27;20861;-77
2022/09/20 05:58:32;;;;;;;9.25;2.75;;;;;;;19.85;53.81;102383.97;5103900;27;20035;-78
2022/09/20 06:04:16;;;;;;;7.05;2.58;;;;;;;19.86;53.59;102388.31;5129041;27;20097;-78
2022/09/20 06:07:03;;;;;;;7.57;2.85;;;;;;;19.85;53.82;102391.81;5128808;27;20047;-77
2022/09/20 06:09:57;;;;;;;13.27;2.53;;;;;;;19.84;53.77;102393.53;5130619;27;20075;-77
2022/09/20 06:12:26;;;;;;;7.32;2.35;;;;;;;19.84;53.71;102398.78;5080278;28;20044;-76
2022/09/20 06:18:02;;;;;;;6.72;2.47;;;;;;;19.84;53.74;102397.91;5107916;28;21540;-79
2022/09/20 06:20:36;;;;;;;5.32;2.15;;;;;;;19.84;53.72;102403.13;5097095;28;20043;-77
2022/09/20 06:23:04;;;;;;;5.75;1.90;;;;;;;19.83;53.85;102412.69;5102978;27;20078;-75
2022/09/20 06:25:49;;;;;;;7.07;2.35;;;;;;;19.83;53.82;102420.50;5085967;27;20051;-76
2022/09/20 06:30:53;;;;;;;5.55;2.13;;;;;;;19.83;53.48;102417.03;5120237;27;20053;-77
2022/09/20 06:41:25;;;;;;;5.15;2.10;;;;;;;19.82;53.71;102407.47;5108404;27;20075;-78
2022/09/20 06:41:51;;;;;;;6.07;2.28;;;;;;;19.82;53.47;102413.56;5116346;27;20087;-77
2022/09/20 06:44:16;;;;;;;5.00;1.92;;;;;;;19.81;53.51;102417.03;5066861;28;20450;-79
2022/09/20 06:46:41;;;;;;;5.88;2.53;;;;;;;19.82;53.43;102426.63;5083032;28;20517;-79
2022/09/20 06:49:08;;;;;;;6.95;2.10;;;;;;;19.82;53.59;102423.16;5121999;27;20051;-78
2022/09/20 06:51:35;;;;;;;4.30;2.08;;;;;;;19.81;53.48;102424.84;5084507;28;20028;-76
2022/09/20 06:54:02;;;;;;;5.65;1.98;;;;;;;19.81;53.55;102427.47;5101197;28;20188;-77
2022/09/20 06:56:33;;;;;;;5.00;1.98;;;;;;;19.81;53.55;102430.06;5102262;27;20084;-75
2022/09/20 06:59:09;;;;;;;4.95;2.13;;;;;;;19.81;53.33;102424.84;5104581;28;20566;-76
2022/09/20 07:01:34;;;;;;;4.47;2.08;;;;;;;19.82;53.37;102421.41;5089091;27;20062;-78
2022/09/20 07:04:01;;;;;;;5.35;2.10;;;;;;;19.83;53.38;102424.88;5087562;28;20075;-76
2022/09/20 07:06:28;;;;;;;4.00;1.75;;;;;;;19.82;53.41;102429.22;5121971;27;20038;-77
2022/09/20 07:08:53;;;;;;;4.85;1.80;;;;;;;19.82;53.43;102423.16;5111703;28;20096;-75
2022/09/20 07:11:21;;;;;;;4.13;2.08;;;;;;;19.82;53.41;102428.38;5104911;28;20044;-76
2022/09/20 07:13:54;;;;;;;5.07;2.10;;;;;;;19.82;53.28;102431.84;5104162;27;20505;-77
2022/09/20 07:16:20;;;;;;;2.55;1.60;;;;;;;19.83;53.46;102433.56;5104004;28;20505;-77
2022/09/20 07:18:46;;;;;;;5.13;2.42;;;;;;;19.83;53.14;102436.19;5105300;27;21713;-77
2022/09/20 07:21:13;;;;;;;3.03;1.70;;;;;;;19.84;53.26;102444.94;5070837;28;20407;-77
2022/09/20 07:23:39;;;;;;;4.20;1.98;;;;;;;19.84;53.29;102448.41;5106496;27;20043;-76
2022/09/20 07:26:05;;;;;;;4.47;1.85;;;;;;;19.83;53.25;102443.16;5090419;28;20196;-74
2022/09/20 07:28:32;;;;;;;3.45;1.60;;;;;;;19.84;53.38;102450.16;5114580;27;20058;-78
2022/09/20 07:30:59;;;;;;;3.85;1.70;;;;;;;19.86;53.25;102453.63;5117551;28;20047;-76
2022/09/20 07:33:25;;;;;;;3.45;1.65;;;;;;;19.84;53.28;102451.03;5105908;28;20047;-75
2022/09/20 07:35:53;;;;;;;7.13;1.75;;;;;;;19.84;53.10;102451.03;5067840;28;20516;-75
2022/09/20 07:38:19;;;;;;;4.07;1.80;;;;;;;19.85;53.06;102449.28;5103524;28;20063;-75
2022/09/20 07:40:45;;;;;;;4.07;1.60;;;;;;;19.84;53.32;102460.59;5103996;27;20075;-75
2022/09/20 07:43:11;;;;;;;3.42;1.70;;;;;;;19.86;53.07;102451.00;5073259;27;20510;-76
2022/09/20 07:45:38;;;;;;;4.00;1.88;;;;;;;19.87;53.16;102452.78;5103066;27;20130;-76
2022/09/20 07:48:07;;;;;;;3.85;1.80;;;;;;;19.87;53.17;102452.78;5082904;28;20048;-76
2022/09/20 07:50:33;;;;;;;4.10;1.80;;;;;;;19.88;53.15;102459.72;5108771;28;20047;-76
2022/09/20 07:52:58;;;;;;;2.95;1.40;;;;;;;19.89;53.17;102461.50;5099159;27;20047;-76
2022/09/20 07:55:24;;;;;;;4.13;1.63;;;;;;;19.89;52.92;102457.13;5095125;28;20561;-76
2022/09/20 07:57:50;;;;;;;2.72;1.58;;;;;;;19.89;53.14;102462.38;5101298;28;20062;-75
2022/09/20 08:00:16;;;;;;;4.57;1.52;;;;;;;19.89;52.89;102462.38;5082838;28;20428;-75
2022/09/20 08:02:44;;;;;;;3.90;1.60;;;;;;;19.89;53.18;102469.34;5099905;28;20036;-78
2022/09/20 08:05:10;;;;;;;3.97;1.73;;;;;;;19.89;53.05;102464.97;5099375;28;20468;-77
2022/09/20 08:07:35;;;;;;;4.45;1.70;;;;;;;19.89;53.12;102467.59;5097447;28;20043;-77
2022/09/20 08:10:01;;;;;;;3.45;1.60;;;;;;;19.89;52.98;102475.44;5082533;28;20044;-76
2022/09/20 08:12:27;;;;;;;4.90;1.50;;;;;;;19.90;52.94;102473.69;5081807;28;20085;-77
2022/09/20 08:14:52;;;;;;;3.03;1.55;;;;;;;19.90;53.02;102479.81;5080839;28;20052;-78
2022/09/20 08:17:18;;;;;;;3.20;1.50;;;;;;;19.93;52.93;102482.44;5057655;28;20131;-77
2022/09/20 08:19:44;;;;;;;3.38;1.63;;;;;;;19.99;52.71;102481.59;5084026;27;20055;-76
2022/09/20 08:22:11;;;;;;;2.95;1.48;;;;;;;20.02;52.85;102483.34;5099888;28;20032;-77
2022/09/20 08:24:37;;;;;;;4.53;1.45;;;;;;;20.00;52.79;102482.47;5082056;28;20044;-75
2022/09/20 08:27:02;;;;;;;3.92;1.70;;;;;;;19.99;52.80;102494.66;5082985;28;20039;-76
2022/09/20 08:29:28;;;;;;;2.67;1.50;;;;;;;19.98;52.69;102505.09;5065612;28;20131;-77
2022/09/20 08:31:56;;;;;;;3.47;1.73;;;;;;;19.96;52.76;102505.09;5081446;28;20047;-75
2022/09/20 08:34:23;;;;;;;2.80;1.50;;;;;;;19.95;52.80;102498.13;5082686;28;20135;-77
2022/09/20 08:36:55;;;;;;;3.10;1.50;;;;;;;19.94;52.69;102509.41;5110072;28;20056;-77
2022/09/20 08:39:21;;;;;;;2.88;1.60;;;;;;;19.92;52.78;102500.69;5098919;28;20051;-76
2022/09/20 08:42:11;;;;;;;2.40;1.33;;;;;;;19.92;52.78;102509.44;5099873;28;20048;-77
2022/09/20 08:44:51;;;;;;;3.83;1.60;;;;;;;19.93;52.92;102515.53;5098580;28;20046;-77
2022/09/20 08:49:54;;;;;;;2.53;1.60;;;;;;;19.91;52.86;102514.63;5109750;28;20047;-79
2022/09/20 08:54:50;;;;;;;2.25;1.15;;;;;;;19.90;52.89;102524.22;5101401;28;20052;-77
2022/09/20 08:57:19;;;;;;;2.58;1.13;;;;;;;19.91;52.72;102527.69;5090309;28;20566;-77
2022/09/20 08:59:44;;;;;;;2.80;1.40;;;;;;;19.91;52.89;102530.31;5096611;28;20078;-78
2022/09/20 09:02:19;;;;;;;3.85;1.40;;;;;;;19.91;52.81;102535.53;5079678;28;20071;-77
2022/09/20 09:04:47;;;;;;;3.45;1.40;;;;;;;19.90;52.74;102526.84;5109321;28;20043;-77
2022/09/20 09:07:15;;;;;;;3.35;1.30;;;;;;;19.95;52.65;102529.47;5081896;28;20050;-78
2022/09/20 09:09:43;;;;;;;2.85;1.35;;;;;;;19.96;52.77;102527.72;5107808;28;20052;-79
2022/09/20 09:12:24;;;;;;;2.83;1.27;;;;;;;19.97;52.51;102522.53;5111711;28;20515;-76
2022/09/20 09:14:56;;;;;;;3.03;1.35;;;;;;;19.99;52.75;102518.19;5086060;27;20142;-76
2022/09/20 09:19:55;;;;;;;2.95;1.40;;;;;;;20.01;52.64;102529.53;5129859;27;20059;-78
2022/09/20 09:25:09;;;;;;;2.13;1.27;;;;;;;20.04;52.46;102526.06;5129458;27;20749;-76
2022/09/20 09:27:49;;;;;;;2.47;1.30;;;;;;;20.04;52.40;102529.53;5100761;28;20524;-76
2022/09/20 09:32:52;;;;;;;1.83;1.08;;;;;;;20.03;52.40;102534.75;5121187;27;20408;-76
2022/09/20 09:35:25;;;;;;;2.97;1.20;;;;;;;20.02;52.55;102533.00;5088090;27;20042;-78
2022/09/20 09:37:59;;;;;;;2.40;1.23;;;;;;;20.02;52.63;102527.78;5099220;28;20087;-75
2022/09/20 09:42:54;;;;;;;2.63;1.25;;;;;;;20.03;52.55;102527.78;5108129;28;20090;-77
2022/09/20 09:47:51;;;;;;;3.95;1.15;;;;;;;20.04;52.64;102536.50;5129641;27;20055;-78
2022/09/20 09:53:21;;;;;;;1.33;0.90;;;;;;;20.05;52.55;102540.84;5090252;27;1134668;-76
2022/09/20 09:56:05;;;;;;;2.92;1.10;;;;;;;20.05;52.31;102538.25;5102819;27;20059;-78
2022/09/20 09:59:00;;;;;;;2.13;0.98;;;;;;;20.05;52.44;102546.09;5109230;27;20104;-76
2022/09/20 10:01:54;;;;;;;2.22;1.00;;;;;;;20.04;52.33;102540.00;5108002;27;20047;-76
2022/09/20 10:07:18;;;;;;;1.70;1.05;;;;;;;20.03;52.33;102542.59;5134273;27;20055;-77
2022/09/20 10:10:01;;;;;;;3.22;1.30;;;;;;;20.05;52.44;102538.25;5103885;27;20039;-76
2022/09/20 10:12:38;;;;;;;2.28;1.00;;;;;;;20.04;52.62;102542.59;5104247;28;20047;-76
2022/09/20 10:15:21;;;;;;;1.73;1.00;;;;;;;20.05;52.45;102539.09;5106535;28;20057;-76
2022/09/20 10:18:08;;;;;;;1.40;0.77;;;;;;;20.05;52.39;102536.50;5110233;27;20235;-75
2022/09/20 10:20:39;;;;;;;2.17;1.00;;;;;;;20.06;52.33;102535.66;5129452;27;20047;-76
2022/09/20 10:26:21;;;;;;;2.47;1.10;;;;;;;20.07;52.32;102528.69;5120263;27;21200;-76
2022/09/20 10:29:07;;;;;;;2.50;1.25;;;;;;;20.08;52.20;102527.84;5101902;27;20047;-76
2022/09/20 10:31:51;;;;;;;1.77;0.80;;;;;;;20.07;52.45;102526.94;5101499;27;20409;-76
2022/09/20 10:36:55;;;;;;;1.98;1.13;;;;;;;20.08;52.36;102530.44;5128530;27;20043;-76
2022/09/20 10:45:09;;;;;;;2.20;1.13;;;;;;;20.07;52.35;102520.84;5128602;27;20054;-76
2022/09/20 10:48:07;;;;;;;1.73;0.80;;;;;;;20.06;52.38;102521.72;5101493;28;20052;-76
2022/09/20 10:50:44;;;;;;;2.45;1.02;;;;;;;20.05;52.34;102526.03;5103196;28;20070;-76
2022/09/20 10:53:26;;;;;;;1.85;0.90;;;;;;;20.05;52.33;102527.78;5103278;28;20039;-76
2022/09/20 10:56:08;;;;;;;1.25;0.90;;;;;;;20.02;52.42;102528.66;5106876;28;20123;-76
2022/09/20 10:59:18;;;;;;;1.75;0.95;;;;;;;20.02;52.48;102520.81;5099441;27;20105;-76
2022/09/20 11:01:53;;;;;;;1.73;1.00;;;;;;;20.03;52.43;102529.50;5101409;28;20122;-77
2022/09/20 11:07:01;;;;;;;1.83;0.93;;;;;;;20.02;52.42;102530.41;5128075;28;20043;-75
2022/09/20 11:09:35;;;;;;;3.15;1.20;;;;;;;20.03;52.45;102533.00;5102575;27;20034;-77
2022/09/20 11:12:17;;;;;;;;;;;;;;;20.03;52.34;102533.00;5129651;27;20051;-75
2022/09/20 11:15:11;;;;;;;1.95;0.88;;;;;;;20.05;52.36;102536.50;5128337;28;19915;-76
2022/09/20 11:18:22;;;;;;;1.88;0.90;;;;;;;20.06;52.39;102538.25;5127721;28;20134;-76
2022/09/20 11:21:07;;;;;;;1.95;0.98;;;;;;;20.08;52.36;102531.31;5097681;28;20043;-76
2022/09/20 11:23:59;;;;;;;2.20;0.88;;;;;;;20.09;52.30;102543.50;5102056;28;20039;-76
2022/09/20 11:28:58;;;;;;;1.67;0.80;;;;;;;20.11;52.13;102538.28;5134082;27;20047;-76
2022/09/20 11:36:57;;;;;;;2.30;1.00;;;;;;;20.10;52.14;102539.16;5133009;28;20055;-77
2022/09/20 11:41:54;;;;;;;2.40;1.00;;;;;;;20.10;52.15;102545.25;5129974;27;20051;-76
2022/09/20 11:44:20;;;;;;;1.70;0.90;;;;;;;20.11;52.00;102541.78;5136345;27;20096;-77
2022/09/20 11:47:10;;;;;;;1.40;0.68;;;;;;;20.11;52.12;102538.28;5132015;27;20047;-77
2022/09/20 11:50:06;;;;;;;1.42;0.80;;;;;;;20.12;52.04;102535.69;5074885;28;20478;-76
2022/09/20 11:52:34;;;;;;;0.88;0.60;;;;;;;20.13;51.95;102537.44;5101529;27;20408;-77
2022/09/20 11:55:18;;;;;;;1.48;0.80;;;;;;;20.13;52.08;102533.94;5099557;28;20048;-78
2022/09/20 11:57:45;;;;;;;1.58;0.65;;;;;;;20.12;51.86;102540.94;5102685;27;20044;-77
2022/09/20 12:00:11;;;;;;;1.48;0.80;;;;;;;20.13;51.86;102541.78;5077660;28;20048;-77
2022/09/20 12:02:42;;;;;;;1.45;0.75;;;;;;;20.14;52.01;102543.53;5079008;28;20048;-78
2022/09/20 12:05:23;;;;;;;1.50;0.80;;;;;;;20.12;52.11;102529.56;5100908;27;20042;-77
2022/09/20 12:07:53;;;;;;;1.52;0.70;;;;;;;20.14;51.86;102538.28;5101123;27;20075;-78
2022/09/20 12:10:25;;;;;;;2.08;0.80;;;;;;;20.15;51.92;102537.44;5100038;28;20054;-76
2022/09/20 12:12:59;;;;;;;1.58;0.70;;;;;;;20.13;51.92;102526.97;5104590;27;20119;-77
2022/09/20 12:17:51;;;;;;;1.50;0.77;;;;;;;20.14;51.88;102531.34;5101982;28;20462;-77
2022/09/20 12:22:50;;;;;;;1.02;0.70;;;;;;;20.14;51.79;102530.47;5107190;28;20044;-76
2022/09/20 12:27:50;;;;;;;1.30;0.63;;;;;;;20.14;51.84;102533.06;5103270;28;20051;-76
2022/09/20 12:30:19;;;;;;;1.75;0.80;;;;;;;20.14;51.88;102536.59;5091798;28;20092;-75
2022/09/20 12:32:49;;;;;;;1.63;0.70;;;;;;;20.14;51.80;102536.59;5102052;28;20066;-76
2022/09/20 12:37:50;;;;;;;1.70;0.70;;;;;;;20.14;51.78;102535.69;5107334;28;20056;-75
2022/09/20 12:40:17;;;;;;;1.67;0.75;;;;;;;20.14;51.86;102533.06;5055209;28;20489;-75
2022/09/20 12:42:43;;;;;;;0.77;0.50;;;;;;;20.13;51.69;102532.19;5072290;28;20067;-75
2022/09/20 12:45:17;;;;;;;1.63;0.80;;;;;;;20.12;51.77;102535.69;5063261;28;20513;-76
2022/09/20 12:47:54;;;;;;;1.83;0.70;;;;;;;20.11;51.88;102528.69;5110093;28;20071;-77
2022/09/20 12:52:56;;;;;;;1.10;0.60;;;;;;;20.11;51.99;102530.44;5130815;27;20066;-76
2022/09/20 12:57:57;;;;;;;1.23;0.60;;;;;;;20.10;51.77;102521.75;5130593;27;20051;-76
2022/09/20 13:02:51;;;;;;;1.42;0.60;;;;;;;20.11;52.17;102525.22;5121842;27;20047;-77
2022/09/20 13:07:58;;;;;;;1.02;0.60;;;;;;;20.11;51.95;102528.69;5130136;27;20047;-76
2022/09/20 13:12:55;;;;;;;1.23;0.75;;;;;;;20.11;51.82;102530.44;5130470;27;20981;-76
2022/09/20 13:15:21;;;;;;;1.42;0.60;;;;;;;20.11;51.94;102533.06;5132136;27;20062;-76
2022/09/20 13:17:50;;;;;;;1.50;0.60;;;;;;;20.11;51.80;102527.84;5102615;27;20531;-76
2022/09/20 13:22:52;;;;;;;0.95;0.60;;;;;;;20.12;51.91;102521.72;5130109;27;20043;-77
2022/09/20 13:25:22;;;;;;;1.27;0.63;;;;;;;20.13;51.69;102519.13;5089409;28;20067;-75
2022/09/20 13:28:04;;;;;;;1.35;0.70;;;;;;;20.13;51.82;102523.50;5102740;27;20107;-77
2022/09/20 13:30:33;;;;;;;1.48;0.63;;;;;;;20.13;51.69;102521.75;5103789;28;20481;-77
2022/09/20 13:33:19;;;;;;;1.08;0.70;;;;;;;20.13;51.95;102523.50;5091419;28;20074;-78
2022/09/20 13:35:47;;;;;;;1.75;0.70;;;;;;;20.12;51.62;102527.84;5128646;27;20129;-77
2022/09/20 13:38:21;;;;;;;2.00;0.85;;;;;;;20.12;51.84;102529.56;5106992;28;20059;-77
2022/09/20 13:40:49;;;;;;;1.35;0.50;;;;;;;20.12;51.81;102529.56;5101937;27;20197;-76
2022/09/20 13:46:10;;;;;;;0.82;0.45;;;;;;;20.12;51.67;102534.78;5129915;27;20555;-75
2022/09/20 13:48:36;;;;;;;1.58;0.70;;;;;;;20.12;51.82;102540.03;5102734;28;20048;-77
2022/09/20 13:51:02;;;;;;;1.65;0.70;;;;;;;20.11;51.75;102539.16;5107556;28;20101;-77
2022/09/20 13:53:29;;;;;;;1.25;0.55;;;;;;;20.10;51.45;102540.03;5092193;27;20055;-77
2022/09/20 13:55:55;;;;;;;1.10;0.60;;;;;;;20.10;51.84;102537.44;5129980;27;20055;-78
2022/09/20 14:00:57;;;;;;;1.85;0.68;;;;;;;20.14;51.78;102538.28;5121201;27;20047;-76
2022/09/20 14:03:26;;;;;;;2.20;0.70;;;;;;;20.16;51.77;102536.56;5104510;28;20104;-78
2022/09/20 14:05:54;;;;;;;1.10;0.60;;;;;;;20.19;51.85;102539.22;5106284;28;20079;-76
2022/09/20 14:08:26;;;;;;;1.90;0.60;;;;;;;20.19;51.77;102538.34;5062020;28;1104953;-75
2022/09/20 14:11:04;;;;;;;1.25;0.63;;;;;;;20.20;51.83;102540.97;5082313;28;20329;-76
2022/09/20 14:13:39;;;;;;;1.23;0.50;;;;;;;20.21;51.85;102536.59;5118551;27;20074;-78
2022/09/20 14:16:05;;;;;;;1.67;0.60;;;;;;;20.22;51.84;102533.13;5103403;27;20054;-78
2022/09/20 14:18:32;;;;;;;1.05;0.60;;;;;;;20.24;51.92;102536.63;5069050;27;20442;-75
2022/09/20 14:20:59;;;;;;;2.70;0.80;;;;;;;20.24;51.77;102534.88;5100134;28;20390;-76
2022/09/20 14:28:51;;;;;;;1.30;0.70;;;;;;;20.27;51.54;102537.53;5128513;27;20101;-75
2022/09/20 14:31:19;;;;;;;0.95;0.60;;;;;;;20.27;51.69;102534.94;5112026;27;20493;-77
2022/09/20 14:33:50;;;;;;;2.05;0.60;;;;;;;20.28;51.79;102531.44;5128387;27;20082;-75
2022/09/20 14:36:19;;;;;;;0.88;0.50;;;;;;;20.27;51.59;102534.94;5130449;27;20082;-77
2022/09/20 14:38:48;;;;;;;1.27;0.52;;;;;;;20.28;51.73;102530.56;5101632;27;20068;-80